createdAt,value
2022-09-06T00:01:23.880Z,98754.00
2022-09-06T00:03:56.439Z,98756.00
2022-09-06T00:06:29.598Z,98753.00
2022-09-06T00:09:20.637Z,98749.00
2022-09-06T00:11:56.304Z,98745.00
2022-09-06T00:14:33.690Z,98748.00
2022-09-06T00:17:08.508Z,98748.00
2022-09-06T00:19:39.819Z,98758.00
2022-09-06T00:22:11.668Z,98762.00
2022-09-06T00:24:43.490Z,98753.00
2022-09-06T00:27:18.061Z,98748.00
2022-09-06T00:29:49.049Z,98751.00
2022-09-06T00:32:26.901Z,98751.00
2022-09-06T00:35:06.855Z,98756.00
2022-09-06T00:37:41.627Z,98761.00
2022-09-06T00:40:15.429Z,98755.00
2022-09-06T00:42:51.904Z,98758.00
2022-09-06T00:45:28.574Z,98754.00
2022-09-06T00:48:04.273Z,98764.00
2022-09-06T00:50:40.894Z,98754.00
2022-09-06T00:53:16.246Z,98762.00
2022-09-06T00:55:57.619Z,98757.00
2022-09-06T00:58:29.331Z,98753.00
2022-09-06T01:01:08.840Z,98765.00
2022-09-06T01:03:43.243Z,98759.00
2022-09-06T01:06:31.769Z,98758.00
2022-09-06T01:09:10.937Z,98767.00
2022-09-06T01:11:56.444Z,98763.00
2022-09-06T01:14:34.398Z,98762.00
2022-09-06T01:17:21.464Z,98761.00
2022-09-06T01:20:19.844Z,98764.00
2022-09-06T01:23:20.891Z,98759.00
2022-09-06T01:26:00.310Z,98761.00
2022-09-06T01:28:42.353Z,98756.00
2022-09-06T01:31:34.201Z,98757.00
2022-09-06T01:34:21.864Z,98764.00
2022-09-06T01:37:10.450Z,98756.00
2022-09-06T01:39:44.672Z,98760.00
2022-09-06T01:42:20.535Z,98756.00
2022-09-06T01:44:59.878Z,98763.00
2022-09-06T01:47:45.619Z,98761.00
2022-09-06T01:50:59.773Z,98760.00
2022-09-06T01:53:40.987Z,98757.00
2022-09-06T01:56:14.813Z,98767.00
2022-09-06T01:58:55.111Z,98762.00
2022-09-06T02:01:38.544Z,98758.00
2022-09-06T02:04:25.344Z,98765.00
2022-09-06T02:06:55.222Z,98769.00
2022-09-06T02:09:36.092Z,98772.00
2022-09-06T02:12:07.695Z,98760.00
2022-09-06T02:14:43.225Z,98760.00
2022-09-06T02:17:21.354Z,98749.00
2022-09-06T02:19:56.485Z,98747.00
2022-09-06T02:22:31.938Z,98749.00
2022-09-06T02:25:01.127Z,98742.00
2022-09-06T02:27:53.787Z,98746.00
2022-09-06T02:30:22.779Z,98741.00
2022-09-06T02:32:59.635Z,98739.00
2022-09-06T02:35:34.635Z,98738.00
2022-09-06T02:38:06.231Z,98735.00
2022-09-06T02:40:43.988Z,98734.00
2022-09-06T02:43:16.054Z,98728.00
2022-09-06T02:45:50.148Z,98726.00
2022-09-06T02:48:26.748Z,98727.00
2022-09-06T02:51:00.445Z,98726.00
2022-09-06T02:53:34.149Z,98740.00
2022-09-06T02:56:15.738Z,98726.00
2022-09-06T02:58:53.077Z,98730.00
2022-09-06T03:01:34.653Z,98728.00
2022-09-06T03:04:24.322Z,98730.00
2022-09-06T03:07:09.691Z,98729.00
2022-09-06T03:09:41.844Z,98731.00
2022-09-06T03:12:19.306Z,98726.00
2022-09-06T03:14:54.720Z,98723.00
2022-09-06T03:17:34.242Z,98726.00
2022-09-06T03:20:09.713Z,98735.00
2022-09-06T03:22:49.473Z,98736.00
2022-09-06T03:25:33.197Z,98733.00
2022-09-06T03:28:27.133Z,98725.00
2022-09-06T03:31:10.153Z,98723.00
2022-09-06T03:33:49.192Z,98732.00
2022-09-06T03:36:32.561Z,98727.00
2022-09-06T03:39:08.529Z,98721.00
2022-09-06T03:41:44.486Z,98727.00
2022-09-06T03:44:38.264Z,98721.00
2022-09-06T03:47:10.745Z,98721.00
2022-09-06T03:49:41.102Z,98713.00
2022-09-06T03:52:16.555Z,98713.00
2022-09-06T03:55:12.025Z,98718.00
2022-09-06T03:58:06.503Z,98716.00
2022-09-06T04:00:50.094Z,98714.00
2022-09-06T04:03:23.401Z,98720.00
2022-09-06T04:05:52.480Z,98719.00
2022-09-06T04:08:25.821Z,98713.00
2022-09-06T04:11:03.066Z,98712.00
2022-09-06T04:13:39.169Z,98712.00
2022-09-06T04:16:08.736Z,98710.00
2022-09-06T04:19:02.370Z,98703.00
2022-09-06T04:21:47.062Z,98698.00
2022-09-06T04:24:24.600Z,98705.00
2022-09-06T04:27:01.227Z,98699.00
2022-09-06T04:29:39.330Z,98699.00
2022-09-06T04:32:18.291Z,98698.00
2022-09-06T04:34:55.829Z,98692.00
2022-09-06T04:37:32.554Z,98692.00
2022-09-06T04:40:14.584Z,98690.00
2022-09-06T04:43:01.546Z,98698.00
2022-09-06T04:45:37.198Z,98694.00
2022-09-06T04:48:21.472Z,98684.00
2022-09-06T04:50:57.076Z,98691.00
2022-09-06T04:53:29.674Z,98700.00
2022-09-06T04:56:20.006Z,98700.00
2022-09-06T04:59:13.640Z,98711.00
2022-09-06T05:01:52.265Z,98726.00
2022-09-06T05:04:28.651Z,98723.00
2022-09-06T05:07:09.498Z,98696.00
2022-09-06T05:09:54.939Z,98695.00
2022-09-06T05:12:44.417Z,98724.00
2022-09-06T05:15:33.696Z,98714.00
2022-09-06T05:18:26.567Z,98720.00
2022-09-06T05:21:22.889Z,98711.00
2022-09-06T05:23:58.909Z,98714.00
2022-09-06T05:26:29.089Z,98718.00
2022-09-06T05:29:12.911Z,98723.00
2022-09-06T05:31:58.525Z,98729.00
2022-09-06T05:34:41.876Z,98730.00
2022-09-06T05:37:31.350Z,98715.00
2022-09-06T05:40:15.131Z,98723.00
2022-09-06T05:43:08.199Z,98711.00
2022-09-06T05:45:53.705Z,98710.00
2022-09-06T05:48:32.214Z,98714.00
2022-09-06T05:51:10.972Z,98725.00
2022-09-06T05:53:44.845Z,98721.00
2022-09-06T05:56:18.271Z,98704.00
2022-09-06T05:58:53.225Z,98706.00
2022-09-06T06:01:44.899Z,98699.00
2022-09-06T06:04:26.118Z,98689.00
2022-09-06T06:07:04.851Z,98687.00
2022-09-06T06:09:40.096Z,98691.00
2022-09-06T06:12:19.176Z,98691.00
2022-09-06T06:15:02.043Z,98689.00
2022-09-06T06:17:37.539Z,98691.00
2022-09-06T06:20:11.194Z,98699.00
2022-09-06T06:23:00.104Z,98704.00
2022-09-06T06:25:33.254Z,98702.00
2022-09-06T06:28:15.472Z,98704.00
2022-09-06T06:30:54.682Z,98711.00
2022-09-06T06:33:28.122Z,98717.00
2022-09-06T06:36:13.580Z,98724.00
2022-09-06T06:38:53.030Z,98727.00
2022-09-06T06:41:29.755Z,98721.00
2022-09-06T06:44:08.804Z,98716.00
2022-09-06T06:46:53.720Z,98707.00
2022-09-06T06:49:32.162Z,98708.00
2022-09-06T06:52:14.290Z,98702.00
2022-09-06T06:54:53.265Z,98713.00
2022-09-06T06:57:36.645Z,98711.00
2022-09-06T07:00:28.112Z,98716.00
2022-09-06T07:03:06.788Z,98715.00
2022-09-06T07:08:53.639Z,98723.00
2022-09-06T07:11:27.393Z,98705.00
2022-09-06T07:14:10.963Z,98706.00
2022-09-06T07:16:42.723Z,98703.00
2022-09-06T07:22:30.269Z,98699.00
2022-09-06T07:25:13.362Z,98710.00
2022-09-06T07:27:50.790Z,98712.00
2022-09-06T07:30:44.417Z,98720.00
2022-09-06T07:33:19.828Z,98710.00
2022-09-06T07:36:02.618Z,98705.00
2022-09-06T07:38:38.221Z,98710.00
2022-09-06T07:41:29.180Z,98708.00
2022-09-06T07:44:02.728Z,98708.00
2022-09-06T07:46:37.652Z,98716.00
2022-09-06T07:49:12.439Z,98703.00
2022-09-06T07:51:50.342Z,98709.00
2022-09-06T07:54:31.045Z,98703.00
2022-09-06T07:57:16.387Z,98706.00
2022-09-06T07:59:47.889Z,98697.00
2022-09-06T08:02:40.798Z,98702.00
2022-09-06T08:11:47.925Z,98703.00
2022-09-06T08:14:42.828Z,98703.00
2022-09-06T08:17:27.013Z,98694.00
2022-09-06T08:20:01.492Z,98704.00
2022-09-06T08:22:45.704Z,98701.00
2022-09-06T08:25:23.246Z,98702.00
2022-09-06T08:27:55.218Z,98698.00
2022-09-06T08:30:34.321Z,98685.00
2022-09-06T08:33:20.333Z,98693.00
2022-09-06T08:36:10.455Z,98698.00
2022-09-06T08:38:46.067Z,98702.00
2022-09-06T08:41:24.893Z,98698.00
2022-09-06T08:44:58.860Z,98702.00
2022-09-06T08:47:29.490Z,98709.00
2022-09-06T08:50:13.304Z,98709.00
2022-09-06T08:53:17.533Z,98702.00
2022-09-06T08:55:53.868Z,98706.00
2022-09-06T08:58:47.610Z,98699.00
2022-09-06T09:01:35.608Z,98690.00
2022-09-06T09:04:07.033Z,98690.00
2022-09-06T09:06:48.774Z,98680.00
2022-09-06T09:12:10.531Z,98684.00
2022-09-06T09:15:00.621Z,98690.00
2022-09-06T09:17:48.494Z,98683.00
2022-09-06T09:20:25.277Z,98676.00
2022-09-06T09:22:58.829Z,98679.00
2022-09-06T09:25:34.068Z,98672.00
2022-09-06T09:28:29.464Z,98668.00
2022-09-06T09:31:25.050Z,98675.00
2022-09-06T09:34:04.387Z,98658.00
2022-09-06T09:40:05.452Z,98657.00
2022-09-06T09:42:49.571Z,98651.00
2022-09-06T09:45:35.899Z,98656.00
2022-09-06T09:48:43.031Z,98648.00
2022-09-06T09:51:34.597Z,98642.00
2022-09-06T09:54:16.593Z,98631.00
2022-09-06T09:57:08.988Z,98635.00
2022-09-06T09:59:56.312Z,98645.00
2022-09-06T10:02:36.026Z,98644.00
2022-09-06T10:05:11.369Z,98641.00
2022-09-06T10:07:47.376Z,98641.00
2022-09-06T10:10:41.873Z,98652.00
2022-09-06T10:13:30.563Z,98652.00
2022-09-06T10:16:24.477Z,98648.00
2022-09-06T10:19:17.855Z,98650.00
2022-09-06T10:21:50.023Z,98656.00
2022-09-06T10:24:49.791Z,98645.00
2022-09-06T10:27:33.244Z,98644.00
2022-09-06T10:30:17.660Z,98652.00
2022-09-06T10:33:08.801Z,98649.00
2022-09-06T10:41:43.481Z,98656.00
2022-09-06T10:44:34.196Z,98639.00
2022-09-06T10:47:31.683Z,98642.00
2022-09-06T10:50:19.246Z,98637.00
2022-09-06T10:53:11.226Z,98640.00
2022-09-06T10:56:11.634Z,98634.00
2022-09-06T11:01:52.399Z,98627.00
2022-09-06T11:10:51.855Z,98624.00
2022-09-06T11:13:30.479Z,98618.00
2022-09-06T11:16:13.671Z,98612.00
2022-09-06T11:18:44.662Z,98610.00
2022-09-06T11:21:27.890Z,98616.00
2022-09-06T11:24:18.905Z,98598.00
2022-09-06T11:27:14.949Z,98602.00
2022-09-06T11:30:01.074Z,98607.00
2022-09-06T11:32:55.332Z,98607.00
2022-09-06T11:35:34.674Z,98603.00
2022-09-06T11:38:15.492Z,98593.00
2022-09-06T11:40:59.349Z,98595.00
2022-09-06T11:47:38.856Z,98587.00
2022-09-06T11:50:36.505Z,98578.00
2022-09-06T11:53:28.279Z,98583.00
2022-09-06T11:56:29.533Z,98586.00
2022-09-06T11:59:13.066Z,98584.00
2022-09-06T12:01:47.128Z,98584.00
2022-09-06T12:04:31.169Z,98583.00
2022-09-06T12:07:21.106Z,98583.00
2022-09-06T12:10:26.376Z,98596.00
2022-09-06T12:13:01.795Z,98572.00
2022-09-06T12:15:36.763Z,98578.00
2022-09-06T12:18:12.760Z,98569.00
2022-09-06T12:21:46.371Z,98572.00
2022-09-06T12:25:01.397Z,98565.00
2022-09-06T12:27:36.479Z,98559.00
2022-09-06T12:30:11.755Z,98560.00
2022-09-06T12:32:49.291Z,98561.00
2022-09-06T12:38:40.169Z,98568.00
2022-09-06T12:41:26.945Z,98566.00
2022-09-06T12:44:01.477Z,98552.00
2022-09-06T12:46:40.266Z,98551.00
2022-09-06T12:49:25.173Z,98551.00
2022-09-06T12:52:20.458Z,98552.00
2022-09-06T12:55:05.527Z,98539.00
2022-09-06T12:57:43.964Z,98537.00
2022-09-06T13:03:37.760Z,98526.00
2022-09-06T13:06:27.276Z,98525.00
2022-09-06T13:09:05.289Z,98519.00
2022-09-06T13:11:37.848Z,98517.00
2022-09-06T13:14:16.768Z,98517.00
2022-09-06T13:17:00.718Z,98516.00
2022-09-06T13:19:42.871Z,98511.00
2022-09-06T13:22:26.562Z,98506.00
2022-09-06T13:25:12.372Z,98507.00
2022-09-06T13:28:05.667Z,98496.00
2022-09-06T13:30:38.872Z,98498.00
2022-09-06T13:33:36.010Z,98494.00
2022-09-06T13:36:37.635Z,98498.00
2022-09-06T13:39:13.744Z,98498.00
2022-09-06T13:42:06.343Z,98498.00
2022-09-06T13:45:22.419Z,98491.00
2022-09-06T13:48:29.732Z,98494.00
2022-09-06T13:51:20.835Z,98493.00
2022-09-06T13:54:17.973Z,98491.00
2022-09-06T13:57:04.198Z,98489.00
2022-09-06T13:59:41.149Z,98480.00
2022-09-06T14:02:37.230Z,98488.00
2022-09-06T14:05:22.160Z,98473.00
2022-09-06T14:08:04.628Z,98477.00
2022-09-06T14:10:54.452Z,98477.00
2022-09-06T14:13:36.349Z,98486.00
2022-09-06T14:16:20.652Z,98479.00
2022-09-06T14:18:50.413Z,98481.00
2022-09-06T14:21:31.965Z,98471.00
2022-09-06T14:27:19.297Z,98477.00
2022-09-06T14:29:50.820Z,98476.00
2022-09-06T14:32:35.359Z,98478.00
2022-09-06T14:35:08.944Z,98480.00
2022-09-06T14:37:47.746Z,98478.00
2022-09-06T14:40:29.957Z,98467.00
2022-09-06T14:43:09.146Z,98470.00
2022-09-06T14:45:48.643Z,98467.00
2022-09-06T14:48:38.083Z,98465.00
2022-09-06T14:51:15.230Z,98456.00
2022-09-06T14:53:55.683Z,98450.00
2022-09-06T14:56:40.404Z,98455.00
2022-09-06T14:59:23.521Z,98457.00
2022-09-06T15:02:16.785Z,98444.00
2022-09-06T15:04:56.791Z,98445.00
2022-09-06T15:07:30.339Z,98444.00
2022-09-06T15:10:06.350Z,98442.00
2022-09-06T15:12:42.874Z,98436.00
2022-09-06T15:15:23.151Z,98435.00
2022-09-06T15:18:09.219Z,98445.00
2022-09-06T15:20:56.293Z,98426.00
2022-09-06T15:23:30.560Z,98423.00
2022-09-06T15:26:15.202Z,98431.00
2022-09-06T15:29:07.818Z,98421.00
2022-09-06T15:31:45.189Z,98420.00
2022-09-06T15:34:32.382Z,98426.00
2022-09-06T15:37:13.200Z,98416.00
2022-09-06T15:39:51.550Z,98419.00
2022-09-06T15:42:36.278Z,98409.00
2022-09-06T15:45:23.548Z,98412.00
2022-09-06T15:48:06.522Z,98408.00
2022-09-06T15:50:52.043Z,98411.00
2022-09-06T15:53:26.125Z,98416.00
2022-09-06T15:56:10.162Z,98411.00
2022-09-06T15:58:45.371Z,98411.00
2022-09-06T16:01:23.015Z,98412.00
2022-09-06T16:03:54.966Z,98408.00
2022-09-06T16:06:38.548Z,98407.00
2022-09-06T16:09:17.986Z,98416.00
2022-09-06T16:11:52.675Z,98413.00
2022-09-06T16:14:38.759Z,98405.00
2022-09-06T16:17:13.743Z,98393.00
2022-09-06T16:19:56.778Z,98398.00
2022-09-06T16:22:27.456Z,98395.00
2022-09-06T16:25:04.429Z,98394.00
2022-09-06T16:27:46.632Z,98391.00
2022-09-06T16:30:28.368Z,98387.00
2022-09-06T16:33:07.555Z,98398.00
2022-09-06T16:35:52.534Z,98409.00
2022-09-06T16:38:32.372Z,98388.00
2022-09-06T16:41:16.113Z,98391.00
2022-09-06T16:43:49.860Z,98386.00
2022-09-06T16:46:46.040Z,98387.00
2022-09-06T16:49:29.117Z,98391.00
2022-09-06T16:52:02.628Z,98420.00
2022-09-06T16:54:34.801Z,98394.00
2022-09-06T16:57:04.861Z,98380.00
2022-09-06T17:00:00.793Z,98389.00
2022-09-06T17:02:36.475Z,98382.00
2022-09-06T17:05:30.217Z,98392.00
2022-09-06T17:08:06.506Z,98390.00
2022-09-06T17:10:38.954Z,98390.00
2022-09-06T17:13:23.200Z,98390.00
2022-09-06T17:16:45.166Z,98382.00
2022-09-06T17:19:23.245Z,98390.00
2022-09-06T17:22:01.633Z,98377.00
2022-09-06T17:24:41.411Z,98378.00
2022-09-06T17:27:20.234Z,98374.00
2022-09-06T17:29:56.236Z,98385.00
2022-09-06T17:32:29.915Z,98390.00
2022-09-06T17:35:07.912Z,98387.00
2022-09-06T17:37:45.908Z,98387.00
2022-09-06T17:40:20.073Z,98389.00
2022-09-06T17:42:59.570Z,98388.00
2022-09-06T17:45:42.509Z,98390.00
2022-09-06T17:48:25.925Z,98390.00
2022-09-06T17:51:21.682Z,98387.00
2022-09-06T17:53:59.954Z,98400.00
2022-09-06T17:56:42.358Z,98391.00
2022-09-06T17:59:23.123Z,98398.00
2022-09-06T18:02:08.772Z,98399.00
2022-09-06T18:04:46.406Z,98394.00
2022-09-06T18:07:32.094Z,98396.00
2022-09-06T18:10:10.042Z,98407.00
2022-09-06T18:13:01.161Z,98407.00
2022-09-06T18:15:50.227Z,98421.00
2022-09-06T18:18:41.959Z,98417.00
2022-09-06T18:21:13.612Z,98421.00
2022-09-06T18:23:55.356Z,98429.00
2022-09-06T18:26:34.112Z,98426.00
2022-09-06T18:29:14.184Z,98418.00
2022-09-06T18:32:00.612Z,98411.00
2022-09-06T18:34:40.685Z,98422.00
2022-09-06T18:37:16.800Z,98419.00
2022-09-06T18:39:51.762Z,98430.00
2022-09-06T18:42:31.410Z,98423.00
2022-09-06T18:45:16.298Z,98435.00
2022-09-06T18:48:02.747Z,98446.00
2022-09-06T18:50:59.959Z,98434.00
2022-09-06T18:53:35.926Z,98433.00
2022-09-06T18:56:16.959Z,98427.00
2022-09-06T18:59:14.293Z,98431.00
2022-09-06T19:01:57.493Z,98429.00
2022-09-06T19:04:41.875Z,98435.00
2022-09-06T19:07:21.580Z,98434.00
2022-09-06T19:10:10.689Z,98442.00
2022-09-06T19:12:55.289Z,98432.00
2022-09-06T19:15:36.895Z,98429.00
2022-09-06T19:18:23.050Z,98425.00
2022-09-06T19:21:10.476Z,98424.00
2022-09-06T19:23:53.972Z,98420.00
2022-09-06T19:26:34.449Z,98428.00
2022-09-06T19:29:23.157Z,98429.00
2022-09-06T19:32:03.235Z,98441.00
2022-09-06T19:34:45.081Z,98428.00
2022-09-06T19:37:33.550Z,98427.00
2022-09-06T19:40:13.747Z,98417.00
2022-09-06T19:42:55.562Z,98412.00
2022-09-06T19:45:36.929Z,98417.00
2022-09-06T19:48:14.631Z,98412.00
2022-09-06T19:50:44.538Z,98411.00
2022-09-06T19:53:23.149Z,98416.00
2022-09-06T19:55:58.552Z,98412.00
2022-09-06T19:58:35.025Z,98419.00
2022-09-06T20:01:11.646Z,98418.00
2022-09-06T20:04:00.424Z,98423.00
2022-09-06T20:06:30.791Z,98413.00
2022-09-06T20:09:14.443Z,98413.00
2022-09-06T20:11:43.521Z,98416.00
2022-09-06T20:14:15.267Z,98406.00
2022-09-06T20:16:54.373Z,98405.00
2022-09-06T20:20:14.951Z,98404.00
2022-09-06T20:23:06.926Z,98404.00
2022-09-06T20:25:52.587Z,98400.00
2022-09-06T20:28:29.650Z,98386.00
2022-09-06T20:31:08.900Z,98385.00
2022-09-06T20:33:49.807Z,98374.00
2022-09-06T20:36:26.790Z,98380.00
2022-09-06T20:39:10.222Z,98396.00
2022-09-06T20:41:49.572Z,98387.00
2022-09-06T20:44:28.639Z,98377.00
2022-09-06T20:47:09.266Z,98378.00
2022-09-06T20:49:44.725Z,98374.00
2022-09-06T20:52:15.672Z,98375.00
2022-09-06T20:54:54.413Z,98376.00
2022-09-06T20:57:34.241Z,98382.00
2022-09-06T21:00:14.506Z,98376.00
2022-09-06T21:02:57.475Z,98380.00
2022-09-06T21:05:32.149Z,98391.00
2022-09-06T21:08:03.725Z,98392.00
2022-09-06T21:10:43.141Z,98396.00
2022-09-06T21:13:22.356Z,98401.00
2022-09-06T21:15:57.004Z,98404.00
2022-09-06T21:18:36.420Z,98402.00
2022-09-06T21:21:14.856Z,98404.00
2022-09-06T21:23:47.757Z,98404.00
2022-09-06T21:26:24.688Z,98409.00
2022-09-06T21:29:00.014Z,98417.00
2022-09-06T21:31:36.790Z,98408.00
2022-09-06T21:34:20.648Z,98414.00
2022-09-06T21:37:00.839Z,98419.00
2022-09-06T21:39:33.258Z,98414.00
2022-09-06T21:42:07.599Z,98409.00
2022-09-06T21:44:40.125Z,98409.00
2022-09-06T21:47:17.387Z,98429.00
2022-09-06T21:49:49.976Z,98420.00
2022-09-06T21:52:24.098Z,98427.00
2022-09-06T21:54:53.047Z,98428.00
2022-09-06T21:57:32.164Z,98425.00
2022-09-06T22:00:05.208Z,98420.00
2022-09-06T22:02:38.912Z,98417.00
2022-09-06T22:05:22.854Z,98414.00
2022-09-06T22:08:02.150Z,98418.00
2022-09-06T22:10:34.868Z,98412.00
2022-09-06T22:13:10.839Z,98419.00
2022-09-06T22:15:43.136Z,98417.00
2022-09-06T22:18:14.441Z,98406.00
2022-09-06T22:20:45.992Z,98419.00
2022-09-06T22:23:26.771Z,98417.00
2022-09-06T22:26:03.916Z,98413.00
2022-09-06T22:28:46.058Z,98417.00
2022-09-06T22:31:21.910Z,98412.00
2022-09-06T22:33:59.337Z,98405.00
2022-09-06T22:36:36.131Z,98410.00
2022-09-06T22:39:12.713Z,98402.00
2022-09-06T22:41:47.687Z,98411.00
2022-09-06T22:44:26.470Z,98403.00
2022-09-06T22:46:58.350Z,98407.00
2022-09-06T22:49:42.805Z,98405.00
2022-09-06T22:52:27.932Z,98401.00
2022-09-06T22:55:13.075Z,98405.00
2022-09-06T22:57:46.608Z,98397.00
2022-09-06T23:00:19.899Z,98397.00
2022-09-06T23:02:51.338Z,98402.00
2022-09-06T23:05:23.747Z,98390.00
2022-09-06T23:07:58.898Z,98398.00
2022-09-06T23:10:38.073Z,98398.00
2022-09-06T23:13:16.589Z,98394.00
2022-09-06T23:15:52.050Z,98393.00
2022-09-06T23:18:23.786Z,98399.00
2022-09-06T23:21:02.105Z,98389.00
2022-09-06T23:23:33.045Z,98395.00
2022-09-06T23:26:09.201Z,98379.00
2022-09-06T23:28:41.013Z,98381.00
2022-09-06T23:31:10.773Z,98374.00
2022-09-06T23:33:40.549Z,98366.00
2022-09-06T23:36:12.654Z,98362.00
2022-09-06T23:38:47.074Z,98373.00
2022-09-06T23:41:22.003Z,98368.00
2022-09-06T23:43:57.094Z,98369.00
2022-09-06T23:46:36.599Z,98365.00
2022-09-06T23:49:07.286Z,98364.00
2022-09-06T23:51:39.795Z,98362.00
2022-09-06T23:54:16.369Z,98359.00
2022-09-06T23:56:55.198Z,98357.00
2022-09-06T23:59:29.103Z,98359.00
